EWG13P EDDL-EDDN
Flight info
| Callsign | EWG13P |
|---|---|
| Flight time | 0h 43m |
| Altitude | 23000 |
| Route | NUDGO6T NUDGO Z858 ESADU P12 WRB Z190 VELIS T194 DODAS DODAS1V |
| Aircraft | A319/M-SDE3FGHIRWY/LB1 |
Departure
| Time | 2026-05-03 22:00 |
|---|---|
| Airport | Düsseldorf Airport (EDDL) |
Arrival
| Time | 2026-05-03 22:43 |
|---|---|
| Airport | Nuremberg Airport (EDDN) |
| Time | Latitude | Longitude | Altitude | Speed | Heading |
|---|---|---|---|---|---|
| 2026-05-03 22:00 | 51.15424 | 6.64792 | 8425 ft | 277 kts | 157° |
| 2026-05-03 22:00 | 51.13910 | 6.66753 | 9348 ft | 290 kts | 130° |
| 2026-05-03 22:01 | 51.13119 | 6.69754 | 10223 ft | 305 kts | 101° |
| 2026-05-03 22:01 | 51.13085 | 6.73271 | 10613 ft | 331 kts | 90° |
| 2026-05-03 22:01 | 51.13215 | 6.77061 | 10882 ft | 355 kts | 88° |
| 2026-05-03 22:01 | 51.13397 | 6.81081 | 11283 ft | 371 kts | 88° |
| 2026-05-03 22:02 | 51.13593 | 6.85204 | 11955 ft | 377 kts | 87° |
| 2026-05-03 22:02 | 51.13787 | 6.89394 | 12667 ft | 382 kts | 87° |
| 2026-05-03 22:02 | 51.13968 | 6.93636 | 13374 ft | 386 kts | 88° |
| 2026-05-03 22:02 | 51.14135 | 6.97930 | 14037 ft | 391 kts | 88° |
| 2026-05-03 22:03 | 51.14289 | 7.02284 | 14678 ft | 395 kts | 88° |
| 2026-05-03 22:03 | 51.14436 | 7.06606 | 15322 ft | 399 kts | 89° |
| 2026-05-03 22:03 | 51.14584 | 7.11029 | 15967 ft | 402 kts | 89° |
| 2026-05-03 22:03 | 51.14736 | 7.15498 | 16616 ft | 406 kts | 89° |
| 2026-05-03 22:04 | 51.14890 | 7.20006 | 17268 ft | 410 kts | 89° |
| 2026-05-03 22:04 | 51.15046 | 7.24553 | 17920 ft | 413 kts | 89° |
| 2026-05-03 22:04 | 51.15198 | 7.29153 | 18528 ft | 417 kts | 89° |
| 2026-05-03 22:04 | 51.15348 | 7.33788 | 19091 ft | 421 kts | 89° |
| 2026-05-03 22:05 | 51.15499 | 7.38465 | 19658 ft | 425 kts | 89° |
| 2026-05-03 22:05 | 51.15771 | 7.43182 | 20211 ft | 431 kts | 82° |
| 2026-05-03 22:05 | 51.16513 | 7.47845 | 20740 ft | 438 kts | 72° |
| 2026-05-03 22:05 | 51.17628 | 7.52388 | 21250 ft | 442 kts | 70° |
| 2026-05-03 22:06 | 51.18764 | 7.56955 | 21758 ft | 446 kts | 70° |
| 2026-05-03 22:06 | 51.19901 | 7.61581 | 22224 ft | 449 kts | 71° |
| 2026-05-03 22:06 | 51.21036 | 7.66244 | 22646 ft | 454 kts | 71° |
| 2026-05-03 22:06 | 51.22181 | 7.70962 | 22941 ft | 458 kts | 71° |
| 2026-05-03 22:07 | 51.23340 | 7.75736 | 23000 ft | 467 kts | 71° |
| 2026-05-03 22:07 | 51.24520 | 7.80589 | 22995 ft | 472 kts | 71° |
| 2026-05-03 22:07 | 51.25709 | 7.85488 | 23000 ft | 473 kts | 71° |
| 2026-05-03 22:07 | 51.26899 | 7.90394 | 22993 ft | 474 kts | 71° |
| 2026-05-03 22:08 | 51.28087 | 7.95294 | 22994 ft | 474 kts | 71° |
| 2026-05-03 22:08 | 51.29276 | 8.00205 | 22993 ft | 474 kts | 71° |
| 2026-05-03 22:08 | 51.30460 | 8.05120 | 23003 ft | 473 kts | 71° |
| 2026-05-03 22:08 | 51.31638 | 8.10033 | 22992 ft | 473 kts | 71° |
| 2026-05-03 22:09 | 51.32809 | 8.14942 | 22965 ft | 473 kts | 71° |
| 2026-05-03 22:09 | 51.33979 | 8.19856 | 22979 ft | 472 kts | 71° |
| 2026-05-03 22:09 | 51.35178 | 8.24745 | 22984 ft | 473 kts | 68° |
| 2026-05-03 22:10 | 51.38174 | 8.34135 | 22991 ft | 474 kts | 64° |
| 2026-05-03 22:10 | 51.39623 | 8.38876 | 22987 ft | 472 kts | 70° |
| 2026-05-03 22:10 | 51.40637 | 8.43851 | 22982 ft | 469 kts | 79° |
| 2026-05-03 22:10 | 51.41171 | 8.48974 | 22977 ft | 465 kts | 88° |
| 2026-05-03 22:11 | 51.41254 | 8.54063 | 22979 ft | 462 kts | 95° |
| 2026-05-03 22:11 | 51.41194 | 8.59270 | 22979 ft | 462 kts | 95° |
| 2026-05-03 22:11 | 51.41135 | 8.64344 | 22980 ft | 462 kts | 95° |
| 2026-05-03 22:11 | 51.41086 | 8.69487 | 22955 ft | 463 kts | 93° |
| 2026-05-03 22:12 | 51.41381 | 8.74657 | 22955 ft | 469 kts | 84° |
| 2026-05-03 22:12 | 51.42181 | 8.79726 | 22958 ft | 473 kts | 73° |
| 2026-05-03 22:12 | 51.43438 | 8.84608 | 22958 ft | 475 kts | 68° |
| 2026-05-03 22:12 | 51.44768 | 8.89452 | 22963 ft | 475 kts | 69° |
| 2026-05-03 22:13 | 51.46088 | 8.94316 | 22964 ft | 475 kts | 69° |
| 2026-05-03 22:13 | 51.47255 | 8.99255 | 22973 ft | 472 kts | 77° |
| 2026-05-03 22:13 | 51.47827 | 9.04404 | 22969 ft | 467 kts | 89° |
| 2026-05-03 22:13 | 51.47790 | 9.09563 | 22982 ft | 461 kts | 100° |
| 2026-05-03 22:14 | 51.47185 | 9.14563 | 22985 ft | 454 kts | 111° |
| 2026-05-03 22:14 | 51.46039 | 9.19228 | 22984 ft | 446 kts | 122° |
| 2026-05-03 22:14 | 51.44408 | 9.23400 | 22975 ft | 438 kts | 133° |
| 2026-05-03 22:14 | 51.42503 | 9.27182 | 22983 ft | 436 kts | 135° |
| 2026-05-03 22:15 | 51.40574 | 9.30938 | 22982 ft | 436 kts | 135° |
| 2026-05-03 22:15 | 51.38632 | 9.34659 | 22982 ft | 435 kts | 135° |
| 2026-05-03 22:15 | 51.36679 | 9.38359 | 22961 ft | 435 kts | 136° |
| 2026-05-03 22:15 | 51.34724 | 9.42056 | 22957 ft | 435 kts | 136° |
| 2026-05-03 22:16 | 51.32768 | 9.45757 | 22974 ft | 435 kts | 136° |
| 2026-05-03 22:16 | 51.30813 | 9.49463 | 22977 ft | 435 kts | 136° |
| 2026-05-03 22:16 | 51.28866 | 9.53152 | 22977 ft | 436 kts | 135° |
| 2026-05-03 22:16 | 51.26911 | 9.56858 | 22960 ft | 436 kts | 135° |
| 2026-05-03 22:17 | 51.24960 | 9.60549 | 22977 ft | 435 kts | 135° |
| 2026-05-03 22:17 | 51.23007 | 9.64239 | 22990 ft | 435 kts | 135° |
| 2026-05-03 22:17 | 51.21014 | 9.67852 | 22996 ft | 431 kts | 140° |
| 2026-05-03 22:17 | 51.18757 | 9.70932 | 23001 ft | 425 kts | 149° |
| 2026-05-03 22:18 | 51.16318 | 9.73574 | 22988 ft | 424 kts | 150° |
| 2026-05-03 22:18 | 51.13877 | 9.76207 | 22987 ft | 424 kts | 150° |
| 2026-05-03 22:18 | 51.11444 | 9.78841 | 22988 ft | 423 kts | 150° |
| 2026-05-03 22:18 | 51.09830 | 9.80587 | 22987 ft | 423 kts | 150° |
| 2026-05-03 22:19 | 51.06571 | 9.84109 | 22988 ft | 424 kts | 150° |
| 2026-05-03 22:19 | 51.04958 | 9.85854 | 22988 ft | 424 kts | 150° |
| 2026-05-03 22:19 | 51.02515 | 9.88490 | 22983 ft | 424 kts | 150° |
| 2026-05-03 22:19 | 51.00078 | 9.91114 | 22985 ft | 424 kts | 150° |
| 2026-05-03 22:20 | 50.96840 | 9.94593 | 22966 ft | 424 kts | 150° |
| 2026-05-03 22:20 | 50.94399 | 9.97210 | 22965 ft | 424 kts | 150° |
| 2026-05-03 22:20 | 50.91948 | 9.99827 | 22967 ft | 425 kts | 150° |
| 2026-05-03 22:20 | 50.90296 | 10.01591 | 22968 ft | 425 kts | 150° |
| 2026-05-03 22:21 | 50.87846 | 10.04211 | 22965 ft | 425 kts | 149° |
| 2026-05-03 22:21 | 50.85392 | 10.06834 | 22970 ft | 425 kts | 149° |
| 2026-05-03 22:21 | 50.82937 | 10.09451 | 22974 ft | 425 kts | 150° |
| 2026-05-03 22:21 | 50.80487 | 10.12056 | 22976 ft | 425 kts | 150° |
| 2026-05-03 22:22 | 50.78024 | 10.14673 | 22977 ft | 426 kts | 150° |
| 2026-05-03 22:22 | 50.75601 | 10.17253 | 22981 ft | 426 kts | 150° |
| 2026-05-03 22:22 | 50.73147 | 10.19861 | 22982 ft | 426 kts | 150° |
| 2026-05-03 22:22 | 50.70688 | 10.22465 | 22984 ft | 426 kts | 150° |
| 2026-05-03 22:23 | 50.68228 | 10.25059 | 22985 ft | 426 kts | 150° |
| 2026-05-03 22:23 | 50.65763 | 10.27657 | 22986 ft | 426 kts | 150° |
| 2026-05-03 22:23 | 50.63300 | 10.30253 | 22967 ft | 426 kts | 150° |
| 2026-05-03 22:23 | 50.60829 | 10.32852 | 22963 ft | 426 kts | 150° |
| 2026-05-03 22:24 | 50.58361 | 10.35441 | 22968 ft | 427 kts | 150° |
| 2026-05-03 22:24 | 50.55883 | 10.38034 | 22969 ft | 428 kts | 150° |
| 2026-05-03 22:24 | 50.53399 | 10.40632 | 22971 ft | 429 kts | 150° |
| 2026-05-03 22:24 | 50.50916 | 10.43237 | 22973 ft | 429 kts | 150° |
| 2026-05-03 22:25 | 50.48389 | 10.45729 | 22964 ft | 427 kts | 155° |
| 2026-05-03 22:25 | 50.45685 | 10.47591 | 22974 ft | 423 kts | 165° |
| 2026-05-03 22:25 | 50.42850 | 10.48725 | 22981 ft | 419 kts | 172° |
| 2026-05-03 22:25 | 50.39981 | 10.49569 | 22975 ft | 420 kts | 172° |
| 2026-05-03 22:26 | 50.37109 | 10.50414 | 22974 ft | 420 kts | 172° |
| 2026-05-03 22:26 | 50.34268 | 10.51255 | 22976 ft | 420 kts | 172° |
| 2026-05-03 22:26 | 50.31397 | 10.52109 | 22984 ft | 420 kts | 172° |
| 2026-05-03 22:26 | 50.28518 | 10.52973 | 22984 ft | 421 kts | 172° |
| 2026-05-03 22:27 | 50.25645 | 10.53838 | 22983 ft | 421 kts | 172° |
| 2026-05-03 22:27 | 50.22771 | 10.54695 | 22988 ft | 421 kts | 172° |
| 2026-05-03 22:27 | 50.19892 | 10.55551 | 22996 ft | 421 kts | 172° |
| 2026-05-03 22:27 | 50.17012 | 10.56407 | 22993 ft | 421 kts | 172° |
| 2026-05-03 22:28 | 50.14139 | 10.57258 | 22978 ft | 421 kts | 172° |
| 2026-05-03 22:28 | 50.11257 | 10.58110 | 22965 ft | 422 kts | 172° |
| 2026-05-03 22:28 | 50.08372 | 10.58960 | 22968 ft | 422 kts | 172° |
| 2026-05-03 22:28 | 50.05483 | 10.59814 | 22971 ft | 423 kts | 172° |
| 2026-05-03 22:29 | 50.02587 | 10.60672 | 22979 ft | 424 kts | 172° |
| 2026-05-03 22:29 | 49.99690 | 10.61527 | 22980 ft | 424 kts | 172° |
| 2026-05-03 22:29 | 49.96784 | 10.62383 | 22979 ft | 424 kts | 172° |
| 2026-05-03 22:29 | 49.93961 | 10.63563 | 22980 ft | 428 kts | 164° |
| 2026-05-03 22:30 | 49.91138 | 10.65064 | 22981 ft | 428 kts | 164° |
| 2026-05-03 22:30 | 49.88325 | 10.66563 | 22986 ft | 428 kts | 164° |
| 2026-05-03 22:30 | 49.85502 | 10.68064 | 22989 ft | 428 kts | 164° |
| 2026-05-03 22:30 | 49.82685 | 10.69550 | 22991 ft | 427 kts | 165° |
| 2026-05-03 22:31 | 49.79813 | 10.70629 | 22994 ft | 424 kts | 174° |
| 2026-05-03 22:31 | 49.76889 | 10.71147 | 22996 ft | 422 kts | 177° |
| 2026-05-03 22:31 | 49.73968 | 10.71634 | 23015 ft | 423 kts | 176° |
| 2026-05-03 22:31 | 49.71057 | 10.72622 | 22744 ft | 433 kts | 165° |
| 2026-05-03 22:32 | 49.68307 | 10.74544 | 21531 ft | 438 kts | 151° |
| 2026-05-03 22:32 | 49.65927 | 10.77494 | 20233 ft | 439 kts | 137° |
| 2026-05-03 22:32 | 49.64056 | 10.81190 | 18996 ft | 437 kts | 124° |
| 2026-05-03 22:32 | 49.62724 | 10.85368 | 17857 ft | 432 kts | 113° |
| 2026-05-03 22:33 | 49.61818 | 10.89734 | 16670 ft | 425 kts | 105° |
| 2026-05-03 22:33 | 49.61293 | 10.94187 | 15529 ft | 418 kts | 101° |
| 2026-05-03 22:33 | 49.60858 | 10.98579 | 14435 ft | 412 kts | 101° |
| 2026-05-03 22:33 | 49.60438 | 11.02902 | 13307 ft | 404 kts | 102° |
| 2026-05-03 22:34 | 49.60032 | 11.07105 | 12153 ft | 397 kts | 102° |
| 2026-05-03 22:34 | 49.59628 | 11.11279 | 11025 ft | 390 kts | 102° |
| 2026-05-03 22:34 | 49.59227 | 11.15374 | 9912 ft | 384 kts | 102° |
| 2026-05-03 22:34 | 49.58829 | 11.19411 | 8745 ft | 378 kts | 101° |
| 2026-05-03 22:35 | 49.58435 | 11.23373 | 7611 ft | 370 kts | 101° |
| 2026-05-03 22:35 | 49.58047 | 11.27264 | 6514 ft | 363 kts | 100° |
| 2026-05-03 22:35 | 49.57664 | 11.31066 | 5370 ft | 357 kts | 98° |
| 2026-05-03 22:35 | 49.57284 | 11.34811 | 4508 ft | 347 kts | 97° |
| 2026-05-03 22:36 | 49.56922 | 11.38355 | 4181 ft | 324 kts | 97° |
| 2026-05-03 22:36 | 49.56551 | 11.41635 | 4034 ft | 299 kts | 103° |
| 2026-05-03 22:36 | 49.55728 | 11.44444 | 3987 ft | 278 kts | 124° |
| 2026-05-03 22:36 | 49.54458 | 11.46541 | 3999 ft | 261 kts | 143° |
| 2026-05-03 22:37 | 49.52931 | 11.47850 | 3991 ft | 245 kts | 162° |
| 2026-05-03 22:37 | 49.51284 | 11.48339 | 4000 ft | 238 kts | 184° |
| 2026-05-03 22:37 | 49.49676 | 11.47930 | 4008 ft | 232 kts | 204° |
| 2026-05-03 22:37 | 49.48295 | 11.46741 | 3990 ft | 226 kts | 225° |
| 2026-05-03 22:38 | 49.47273 | 11.44958 | 4004 ft | 220 kts | 243° |
| 2026-05-03 22:38 | 49.46700 | 11.42819 | 4013 ft | 214 kts | 262° |
| 2026-05-03 22:38 | 49.46597 | 11.40568 | 4010 ft | 210 kts | 279° |
| 2026-05-03 22:38 | 49.46808 | 11.38391 | 4001 ft | 210 kts | 282° |
| 2026-05-03 22:39 | 49.47035 | 11.36172 | 4008 ft | 210 kts | 282° |
| 2026-05-03 22:39 | 49.47254 | 11.33994 | 3999 ft | 199 kts | 282° |
| 2026-05-03 22:39 | 49.47460 | 11.31948 | 3898 ft | 187 kts | 282° |
| 2026-05-03 22:39 | 49.47655 | 11.30016 | 3669 ft | 179 kts | 282° |
| 2026-05-03 22:40 | 49.47842 | 11.28157 | 3445 ft | 173 kts | 282° |
| 2026-05-03 22:40 | 49.48022 | 11.26361 | 3222 ft | 167 kts | 283° |
| 2026-05-03 22:40 | 49.48197 | 11.24618 | 2998 ft | 162 kts | 282° |
| 2026-05-03 22:40 | 49.48365 | 11.22941 | 2782 ft | 156 kts | 281° |
| 2026-05-03 22:41 | 49.48526 | 11.21332 | 2579 ft | 149 kts | 282° |
| 2026-05-03 22:41 | 49.48677 | 11.19814 | 2390 ft | 137 kts | 282° |
| 2026-05-03 22:41 | 49.48814 | 11.18430 | 2216 ft | 127 kts | 282° |
| 2026-05-03 22:41 | 49.48946 | 11.17108 | 2049 ft | 124 kts | 283° |
| 2026-05-03 22:42 | 49.49077 | 11.15799 | 1880 ft | 124 kts | 282° |
| 2026-05-03 22:42 | 49.49207 | 11.14488 | 1712 ft | 124 kts | 281° |
| 2026-05-03 22:42 | 49.49338 | 11.13176 | 1548 ft | 124 kts | 280° |
| 2026-05-03 22:42 | 49.49471 | 11.11859 | 1391 ft | 125 kts | 279° |
| 2026-05-03 22:43 | 49.49599 | 11.10547 | 1244 ft | 124 kts | 279° |
| 2026-05-03 22:43 | 49.49730 | 11.09248 | 1052 ft | 120 kts | 279° |
| 2026-05-03 22:43 | 49.49832 | 11.08251 | 1029 ft | 56 kts | 277° |
| 2026-05-03 22:43 | 49.49871 | 11.07781 | 1033 ft | 38 kts | 279° |
| 2026-05-03 22:44 | 49.49836 | 11.07646 | 1031 ft | 12 kts | 152° |
| 2026-05-03 22:44 | 49.49755 | 11.07701 | 1032 ft | 14 kts | 152° |
| 2026-05-03 22:44 | 49.49661 | 11.07769 | 1031 ft | 17 kts | 169° |
| 2026-05-03 22:44 | 49.49572 | 11.07737 | 1029 ft | 10 kts | 189° |
| 2026-05-03 22:45 | 49.49531 | 11.07727 | 1027 ft | 6 kts | 188° |
| 2026-05-03 22:45 | 49.49520 | 11.07724 | 1026 ft | 0 kts | 188° |